Time;durP1;ratioP1;P1;durP2;ratioP2;P2;SDS_P1;SDS_P2;PMS_P1;PMS_P2;Temp;Humidity;BMP_temperature;BMP_pressure;BME280_temperature;BME280_humidity;BME280_pressure;Samples;Min_cycle;Max_cycle;Signal;HPM_P1;HPM_P2
2021/10/31 00:00:41;;;;;;;6.78;3.90;;;10.60;99.90;;;;;;5026389;28;20032;-83
2021/10/31 00:03:06;;;;;;;5.03;2.55;;;10.50;99.90;;;;;;5008919;28;20029;-83
2021/10/31 00:05:32;;;;;;;5.53;3.72;;;10.50;99.90;;;;;;5008807;28;20068;-83
2021/10/31 00:11:46;;;;;;;7.15;2.97;;;10.50;99.90;;;;;;5026523;28;20064;-83
2021/10/31 00:14:11;;;;;;;4.53;2.92;;;10.40;99.90;;;;;;5008620;28;20030;-83
2021/10/31 00:20:25;;;;;;;5.70;2.92;;;10.40;99.90;;;;;;5026259;28;20052;-83
2021/10/31 00:22:50;;;;;;;3.95;2.35;;;10.40;99.90;;;;;;5008673;28;20038;-83
2021/10/31 00:25:16;;;;;;;4.32;2.90;;;10.30;99.90;;;;;;4992295;28;20049;-83
2021/10/31 00:31:30;;;;;;;6.97;2.90;;;10.40;99.90;;;;;;5026135;28;20037;-83
2021/10/31 00:33:55;;;;;;;4.35;2.85;;;10.40;99.90;;;;;;5008432;28;20037;-83
2021/10/31 00:40:10;;;;;;;4.72;3.08;;;10.40;99.90;;;;;;5026563;28;20037;-83
2021/10/31 00:42:35;;;;;;;7.50;3.28;;;10.50;99.90;;;;;;5012280;28;20037;-83
2021/10/31 00:45:01;;;;;;;7.68;3.28;;;10.40;99.90;;;;;;5012348;28;20068;-84
2021/10/31 00:51:16;;;;;;;7.85;3.35;;;10.50;99.90;;;;;;5029947;28;20057;-83
2021/10/31 00:53:43;;;;;;;8.20;3.17;;;10.40;99.90;;;;;;5028727;28;20030;-83
2021/10/31 00:59:58;;;;;;;10.73;6.35;;;10.30;99.90;;;;;;5029901;28;20058;-83
2021/10/31 01:02:25;;;;;;;10.05;7.57;;;10.30;99.90;;;;;;5028464;28;20025;-83
2021/10/31 01:04:55;;;;;;;11.65;7.53;;;10.30;99.90;;;;;;5012033;28;20034;-83
2021/10/31 01:11:12;;;;;;;8.20;6.45;;;10.30;99.90;;;;;;5029697;28;20065;-85
2021/10/31 01:13:44;;;;;;;10.47;4.73;;;10.30;99.90;;;;;;5012097;28;20478;-83
2021/10/31 01:20:26;;;;;;;5.05;2.58;;;10.30;99.90;;;;;;5029559;28;20076;-83
2021/10/31 01:23:13;;;;;;;6.30;3.30;;;10.20;99.90;;;;;;5011661;28;20045;-83
2021/10/31 01:29:46;;;;;;;7.90;3.67;;;10.20;99.90;;;;;;5029451;28;20097;-83
2021/10/31 01:32:17;;;;;;;6.97;4.78;;;10.20;99.90;;;;;;5011795;28;20073;-84
2021/10/31 01:35:21;;;;;;;7.88;5.05;;;10.20;99.90;;;;;;5028106;28;20030;-87
2021/10/31 01:41:47;;;;;;;11.48;5.65;;;10.20;99.90;;;;;;5029383;28;20041;-84
2021/10/31 01:44:38;;;;;;;8.27;6.13;;;10.10;99.90;;;;;;5012954;28;20038;-86
2021/10/31 01:50:56;;;;;;;9.68;6.43;;;10.10;99.90;;;;;;5028812;28;20065;-85
2021/10/31 01:53:34;;;;;;;10.02;6.25;;;10.00;99.90;;;;;;5026644;28;20038;-84
2021/10/31 01:56:16;;;;;;;7.13;4.80;;;10.00;99.90;;;;;;4994972;28;20033;-83
2021/10/31 01:58:47;;;;;;;7.03;4.68;;;10.00;99.90;;;;;;5027491;28;20033;-84
2021/10/31 02:01:16;;;;;;;9.13;5.15;;;9.90;99.90;;;;;;5028818;28;20064;-83
2021/10/31 02:03:43;;;;;;;8.70;4.57;;;9.90;99.90;;;;;;5011257;28;20124;-84
2021/10/31 02:06:11;;;;;;;9.02;4.32;;;9.90;99.90;;;;;;5011047;28;20281;-84
2021/10/31 02:08:40;;;;;;;7.82;4.15;;;9.90;99.90;;;;;;5027130;28;20061;-84
2021/10/31 02:11:09;;;;;;;5.50;3.65;;;9.90;99.90;;;;;;5027415;28;20041;-83
2021/10/31 02:13:35;;;;;;;3.60;2.30;;;9.80;99.90;;;;;;5010777;28;20046;-84
2021/10/31 02:16:02;;;;;;;4.22;2.40;;;9.90;99.90;;;;;;5010691;28;20037;-87
2021/10/31 02:18:29;;;;;;;3.88;2.50;;;9.80;99.90;;;;;;5010829;28;20041;-84
2021/10/31 02:20:57;;;;;;;6.55;3.08;;;9.80;99.90;;;;;;5010558;28;20037;-84
2021/10/31 02:23:24;;;;;;;5.00;3.72;;;9.80;99.90;;;;;;5026782;28;20033;-87
2021/10/31 02:25:50;;;;;;;7.47;4.88;;;9.70;99.90;;;;;;5026973;28;20033;-84
2021/10/31 02:32:04;;;;;;;8.50;5.95;;;9.60;99.90;;;;;;5028287;28;20037;-84
2021/10/31 02:34:30;;;;;;;9.32;6.57;;;9.60;99.90;;;;;;5010313;28;20022;-86
2021/10/31 02:40:44;;;;;;;7.60;3.63;;;9.60;99.90;;;;;;5028043;28;20064;-83
2021/10/31 02:43:09;;;;;;;7.53;3.67;;;9.70;99.90;;;;;;5010308;28;20030;-84
2021/10/31 02:45:35;;;;;;;7.43;2.85;;;9.70;99.90;;;;;;5010166;28;20089;-84
2021/10/31 02:51:55;;;;;;;4.70;2.50;;;9.60;99.90;;;;;;5027732;28;20053;-84
2021/10/31 02:54:40;;;;;;;4.70;2.45;;;9.70;99.90;;;;;;5026297;28;20033;-84
2021/10/31 03:00:57;;;;;;;5.72;2.80;;;9.70;99.90;;;;;;5027901;28;20056;-86
2021/10/31 03:03:23;;;;;;;;;;;9.70;99.90;;;;;;5010326;28;20034;-84
2021/10/31 03:05:53;;;;;;;3.42;1.75;;;9.60;99.90;;;;;;5026386;28;19959;-84
2021/10/31 03:12:09;;;;;;;4.15;2.25;;;9.50;99.90;;;;;;5027554;28;20037;-84
2021/10/31 03:14:35;;;;;;;5.35;2.38;;;9.50;99.90;;;;;;5026121;28;20040;-84
2021/10/31 03:20:49;;;;;;;4.07;2.03;;;9.60;99.90;;;;;;5027484;28;20068;-83
2021/10/31 03:23:15;;;;;;;3.90;1.75;;;9.50;99.90;;;;;;5009502;28;20030;-84
2021/10/31 03:25:41;;;;;;;4.03;1.88;;;9.50;99.90;;;;;;5009537;28;20102;-84
2021/10/31 03:31:55;;;;;;;4.20;1.27;;;9.50;99.90;;;;;;5027370;28;20628;-86
2021/10/31 03:34:21;;;;;;;5.18;2.38;;;9.60;99.90;;;;;;5009508;28;20042;-83
2021/10/31 03:40:33;;;;;;;4.32;2.38;;;9.60;99.90;;;;;;5027022;28;20137;-84
2021/10/31 03:42:59;;;;;;;4.40;2.35;;;9.60;99.90;;;;;;5009364;28;20498;-83
2021/10/31 03:45:45;;;;;;;7.95;3.08;;;9.50;99.90;;;;;;5009167;28;20041;-85
2021/10/31 14:46:05;;;;;;;2.58;0.57;;;15.20;99.90;;;;;;5044448;28;20601;-83
2021/10/31 14:48:36;;;;;;;2.60;0.52;;;15.20;99.90;;;;;;4959304;29;20055;-83
2021/10/31 14:51:31;;;;;;;1.60;0.50;;;15.20;99.90;;;;;;4967576;28;20046;-84
2021/10/31 14:54:07;;;;;;;1.50;0.50;;;15.20;99.90;;;;;;4995613;28;20054;-83
2021/10/31 14:56:37;;;;;;;1.63;0.50;;;15.20;99.90;;;;;;4983409;28;20043;-82
2021/10/31 14:59:07;;;;;;;2.10;0.85;;;15.20;99.90;;;;;;4983031;28;20423;-84
2021/10/31 15:01:34;;;;;;;2.33;0.60;;;15.20;99.90;;;;;;4983403;28;20039;-84
2021/10/31 15:04:00;;;;;;;0.90;0.40;;;15.20;99.90;;;;;;4983472;28;20107;-84
2021/10/31 15:06:26;;;;;;;2.22;0.55;;;15.20;99.90;;;;;;4983341;28;20042;-82
2021/10/31 15:08:55;;;;;;;2.42;0.73;;;15.20;99.90;;;;;;4983107;28;20082;-85
2021/10/31 15:11:22;;;;;;;1.58;0.40;;;15.20;99.90;;;;;;4983163;28;20035;-83
2021/10/31 15:13:47;;;;;;;1.23;0.50;;;15.20;99.90;;;;;;4983584;28;20047;-84
2021/10/31 15:16:14;;;;;;;0.98;0.50;;;15.20;99.90;;;;;;4982843;28;20102;-83
2021/10/31 15:18:43;;;;;;;1.20;0.40;;;15.20;99.90;;;;;;4982712;28;20051;-83
2021/10/31 15:21:10;;;;;;;1.65;0.40;;;15.20;99.90;;;;;;4966875;29;20043;-83
2021/10/31 15:23:39;;;;;;;3.28;0.50;;;15.20;99.90;;;;;;4966681;29;20035;-83
2021/10/31 15:26:05;;;;;;;1.13;0.40;;;15.20;99.90;;;;;;4967211;29;20043;-83
2021/10/31 15:28:30;;;;;;;1.75;0.50;;;15.20;99.90;;;;;;4968033;29;20075;-84
2021/10/31 15:30:56;;;;;;;1.15;0.40;;;15.30;99.90;;;;;;4982864;28;20046;-84
2021/10/31 15:33:29;;;;;;;1.52;0.50;;;15.30;99.90;;;;;;4967188;29;20047;-84
2021/10/31 15:35:55;;;;;;;1.02;0.40;;;15.30;99.90;;;;;;4983117;28;20046;-85
2021/10/31 15:38:21;;;;;;;1.85;0.40;;;15.30;99.90;;;;;;4966884;29;20106;-83
2021/10/31 15:40:47;;;;;;;1.58;0.50;;;15.40;99.90;;;;;;4983201;28;20043;-84
2021/10/31 15:43:13;;;;;;;1.20;0.40;;;15.40;99.90;;;;;;4983089;28;20046;-84
2021/10/31 15:45:39;;;;;;;1.48;0.50;;;15.40;99.90;;;;;;4966867;29;20066;-83
2021/10/31 15:48:05;;;;;;;1.63;0.52;;;15.40;99.90;;;;;;4980902;28;20643;-85
2021/10/31 15:50:32;;;;;;;2.42;0.60;;;15.50;99.90;;;;;;4988828;28;20039;-84
2021/10/31 15:52:58;;;;;;;1.50;0.45;;;15.40;99.90;;;;;;4963904;28;20081;-84
2021/10/31 15:55:24;;;;;;;0.85;0.45;;;15.40;99.90;;;;;;4965837;29;20415;-84
2021/10/31 15:57:49;;;;;;;1.92;0.45;;;15.40;99.90;;;;;;4966459;29;20047;-85
2021/10/31 16:00:15;;;;;;;0.85;0.43;;;15.40;99.90;;;;;;4941245;28;20054;-83
2021/10/31 16:02:48;;;;;;;1.73;0.45;;;15.40;99.90;;;;;;4962682;28;20043;-85
2021/10/31 16:05:17;;;;;;;1.42;0.50;;;15.30;99.90;;;;;;4948185;29;20040;-83
2021/10/31 16:07:43;;;;;;;1.17;0.40;;;15.20;99.90;;;;;;4964621;29;20094;-84
2021/10/31 16:10:09;;;;;;;1.60;0.47;;;15.20;99.90;;;;;;4966641;28;20283;-84
2021/10/31 16:12:39;;;;;;;2.70;0.50;;;15.10;99.90;;;;;;4980194;28;20070;-84
2021/10/31 16:15:05;;;;;;;1.63;0.60;;;15.10;99.90;;;;;;4980549;28;20039;-87
2021/10/31 16:17:31;;;;;;;0.73;0.30;;;15.10;99.90;;;;;;4934814;29;20039;-83
2021/10/31 16:19:57;;;;;;;1.33;0.50;;;15.20;99.90;;;;;;4965257;28;20039;-86
2021/10/31 16:22:22;;;;;;;0.80;0.40;;;15.20;99.90;;;;;;4966782;28;20039;-87
2021/10/31 16:24:49;;;;;;;1.00;0.40;;;15.20;99.90;;;;;;4965505;28;20515;-85
2021/10/31 16:27:15;;;;;;;1.15;0.40;;;15.20;99.90;;;;;;4951785;29;20050;-85
2021/10/31 16:29:41;;;;;;;1.42;0.38;;;15.20;99.90;;;;;;4964917;29;20047;-85
2021/10/31 16:32:07;;;;;;;1.40;0.40;;;15.20;99.90;;;;;;4966072;29;20069;-86
2021/10/31 16:34:33;;;;;;;0.95;0.30;;;15.10;99.90;;;;;;4974610;28;20043;-85
2021/10/31 16:36:59;;;;;;;0.93;0.40;;;15.20;99.90;;;;;;4980246;28;20102;-86
2021/10/31 16:39:27;;;;;;;0.93;0.32;;;15.20;99.90;;;;;;4932971;29;20050;-84
2021/10/31 16:41:55;;;;;;;1.02;0.30;;;15.30;99.90;;;;;;4978263;28;20052;-85
2021/10/31 16:44:21;;;;;;;2.08;0.40;;;15.30;99.90;;;;;;4948473;29;20066;-85
2021/10/31 16:46:46;;;;;;;1.30;0.40;;;15.30;99.90;;;;;;4964208;28;20083;-84
2021/10/31 16:49:13;;;;;;;0.70;0.30;;;15.30;99.90;;;;;;4980525;28;20051;-85
2021/10/31 16:51:39;;;;;;;0.90;0.40;;;15.30;99.90;;;;;;4949448;29;20046;-85
2021/10/31 16:54:06;;;;;;;1.23;0.40;;;15.30;99.90;;;;;;4967374;28;20071;-85
2021/10/31 16:56:35;;;;;;;0.70;0.30;;;15.30;99.90;;;;;;4980641;28;20051;-85
2021/10/31 16:59:04;;;;;;;0.75;0.40;;;15.20;99.90;;;;;;4932549;29;20443;-84
2021/10/31 17:01:32;;;;;;;1.02;0.40;;;15.30;99.90;;;;;;4928490;28;20039;-86
2021/10/31 17:03:59;;;;;;;1.35;0.30;;;15.20;99.90;;;;;;4948509;29;20050;-85
2021/10/31 17:06:24;;;;;;;0.93;0.30;;;15.20;99.90;;;;;;4935010;29;20043;-85
2021/10/31 17:08:50;;;;;;;0.80;0.30;;;15.10;99.90;;;;;;4949370;29;20055;-86
2021/10/31 17:11:16;;;;;;;0.77;0.30;;;15.20;99.90;;;;;;4965495;28;20040;-85
2021/10/31 17:13:41;;;;;;;0.60;0.30;;;15.20;99.90;;;;;;4949911;29;20066;-85
2021/10/31 17:16:07;;;;;;;0.85;0.30;;;15.10;99.90;;;;;;4949830;29;20111;-85
2021/10/31 17:18:34;;;;;;;0.90;0.50;;;15.10;99.90;;;;;;4982162;28;20126;-85
2021/10/31 17:21:00;;;;;;;0.55;0.20;;;15.10;99.90;;;;;;4937888;29;20099;-86
2021/10/31 17:23:26;;;;;;;1.38;0.38;;;15.00;99.90;;;;;;4966773;28;20050;-84
2021/10/31 17:25:53;;;;;;;0.68;0.30;;;15.00;99.90;;;;;;4936389;29;20039;-84
2021/10/31 17:28:19;;;;;;;1.00;0.40;;;15.00;99.90;;;;;;4984170;28;20050;-86
2021/10/31 17:30:45;;;;;;;0.70;0.30;;;15.00;99.90;;;;;;4968093;29;20466;-85
2021/10/31 17:33:12;;;;;;;0.85;0.38;;;15.00;99.90;;;;;;4983893;28;20036;-83
2021/10/31 17:35:37;;;;;;;0.80;0.40;;;15.00;99.90;;;;;;4967429;29;20062;-84
2021/10/31 17:38:04;;;;;;;1.40;0.40;;;15.00;99.90;;;;;;4968600;28;20035;-84
2021/10/31 17:40:30;;;;;;;2.22;0.40;;;15.00;99.90;;;;;;4968387;28;20050;-84
2021/10/31 17:42:56;;;;;;;1.10;0.40;;;15.00;99.90;;;;;;4967937;29;20031;-84
2021/10/31 17:45:42;;;;;;;1.13;0.30;;;15.00;99.90;;;;;;4983304;28;20139;-84
2021/10/31 17:48:09;;;;;;;1.00;0.28;;;15.00;99.90;;;;;;4967892;28;20047;-85
2021/10/31 17:50:35;;;;;;;0.85;0.20;;;15.00;99.90;;;;;;4950400;29;20043;-85
2021/10/31 17:53:01;;;;;;;0.60;0.30;;;15.00;99.90;;;;;;4966173;29;20106;-87
2021/10/31 17:55:28;;;;;;;0.75;0.28;;;15.00;99.90;;;;;;4966377;28;20087;-86
2021/10/31 17:57:54;;;;;;;1.58;0.20;;;14.90;99.90;;;;;;4966459;29;20059;-86
2021/10/31 18:00:23;;;;;;;2.10;0.30;;;14.90;99.90;;;;;;4929738;29;20051;-86
2021/10/31 18:02:50;;;;;;;0.80;0.30;;;14.90;99.90;;;;;;4966315;29;20043;-85
2021/10/31 18:05:18;;;;;;;1.67;0.20;;;14.90;99.90;;;;;;4965567;29;20051;-87
2021/10/31 18:07:44;;;;;;;0.95;0.30;;;14.80;99.90;;;;;;4949909;29;20047;-87
2021/10/31 18:10:12;;;;;;;1.40;0.20;;;14.80;99.90;;;;;;4966460;29;20082;-86
2021/10/31 18:12:39;;;;;;;0.68;0.30;;;14.90;99.90;;;;;;4966076;29;20031;-87
2021/10/31 18:15:07;;;;;;;2.55;0.30;;;14.80;99.90;;;;;;4965743;29;20138;-87
2021/10/31 18:17:32;;;;;;;0.80;0.20;;;14.80;99.90;;;;;;4951692;29;20122;-88
2021/10/31 18:19:58;;;;;;;0.85;0.30;;;14.80;99.90;;;;;;4966121;29;20555;-88
2021/10/31 18:22:28;;;;;;;1.10;0.30;;;14.80;99.90;;;;;;4966212;29;20039;-86
2021/10/31 18:24:55;;;;;;;;;;;14.80;99.90;;;;;;4954314;29;20035;-86
2021/10/31 18:27:23;;;;;;;0.70;0.30;;;14.80;99.90;;;;;;4967152;29;19990;-86
2021/10/31 18:29:49;;;;;;;1.02;0.30;;;14.80;99.90;;;;;;4981836;28;20070;-86
2021/10/31 18:32:14;;;;;;;0.73;0.20;;;14.80;99.90;;;;;;4967126;28;20039;-87
2021/10/31 18:34:40;;;;;;;0.55;0.20;;;14.80;99.90;;;;;;4951816;29;20470;-85
2021/10/31 18:37:12;;;;;;;1.27;0.30;;;14.80;99.90;;;;;;4968066;29;20443;-86
2021/10/31 18:39:38;;;;;;;1.45;0.30;;;14.80;99.90;;;;;;4937094;29;20063;-87
2021/10/31 18:42:04;;;;;;;0.57;0.20;;;14.80;99.90;;;;;;4966641;28;20047;-87
2021/10/31 18:44:30;;;;;;;0.98;0.30;;;14.80;99.90;;;;;;4968695;28;20035;-87
2021/10/31 18:46:55;;;;;;;0.88;0.30;;;14.80;99.90;;;;;;4963852;29;20119;-85
2021/10/31 18:49:21;;;;;;;1.98;0.22;;;14.80;99.90;;;;;;4966176;29;20103;-89
2021/10/31 18:51:47;;;;;;;2.97;0.20;;;14.90;99.90;;;;;;4937147;29;20035;-91
2021/10/31 18:54:13;;;;;;;1.80;0.13;;;12.90;99.90;;;;;;4967081;28;20043;-88
2021/10/31 18:56:41;;;;;;;1.83;0.10;;;12.40;99.90;;;;;;4966204;29;20249;-86
2021/10/31 18:59:09;;;;;;;0.95;0.20;;;12.40;99.90;;;;;;4982819;28;20050;-87
2021/10/31 19:01:36;;;;;;;2.42;0.20;;;12.30;99.90;;;;;;4955135;28;20199;-86
2021/10/31 19:04:02;;;;;;;2.00;0.20;;;12.30;99.90;;;;;;4982716;28;20050;-87
2021/10/31 19:06:28;;;;;;;2.78;0.20;;;12.30;99.90;;;;;;4939446;29;20130;-87
2021/10/31 19:08:54;;;;;;;2.88;0.30;;;12.30;99.90;;;;;;4967949;29;20078;-87
2021/10/31 19:11:20;;;;;;;3.03;0.15;;;12.30;99.90;;;;;;4967914;29;20047;-85
2021/10/31 19:13:45;;;;;;;2.53;0.20;;;12.40;99.90;;;;;;4954581;29;20046;-86
2021/10/31 19:16:11;;;;;;;5.50;0.30;;;12.30;99.90;;;;;;4933797;29;20057;-86
2021/10/31 19:18:36;;;;;;;2.22;0.20;;;12.30;99.90;;;;;;4950373;29;20054;-87
2021/10/31 19:21:07;;;;;;;1.42;0.20;;;12.30;99.90;;;;;;4965974;28;20043;-86
2021/10/31 19:23:34;;;;;;;3.38;0.20;;;12.30;99.90;;;;;;4967267;28;20047;-86
2021/10/31 19:25:59;;;;;;;4.75;0.75;;;12.30;99.90;;;;;;4965553;29;20135;-86
2021/10/31 19:28:25;;;;;;;4.90;0.30;;;12.20;99.90;;;;;;4965990;29;20048;-86
2021/10/31 19:30:55;;;;;;;2.78;0.20;;;12.10;99.90;;;;;;4967090;28;20035;-87
2021/10/31 19:33:27;;;;;;;7.15;0.35;;;12.10;99.90;;;;;;4952771;29;20091;-86
2021/10/31 19:35:53;;;;;;;7.38;0.30;;;12.10;99.90;;;;;;4981740;28;20035;-87
2021/10/31 19:38:18;;;;;;;5.68;0.40;;;12.00;99.90;;;;;;4982041;28;20137;-87
2021/10/31 19:40:44;;;;;;;5.18;0.30;;;12.00;99.90;;;;;;4966360;28;20031;-87
2021/10/31 19:43:10;;;;;;;5.28;0.20;;;12.00;99.90;;;;;;4949938;29;20043;-88
2021/10/31 19:45:36;;;;;;;5.35;0.40;;;12.00;99.90;;;;;;4949872;29;20136;-87
2021/10/31 19:48:01;;;;;;;2.50;0.20;;;12.00;99.90;;;;;;4981237;28;20051;-87
2021/10/31 19:50:27;;;;;;;4.22;0.32;;;12.00;99.90;;;;;;4965944;29;20487;-87
2021/10/31 19:52:52;;;;;;;4.25;0.20;;;12.00;99.90;;;;;;4984140;28;20039;-88
2021/10/31 19:55:18;;;;;;;3.60;0.20;;;12.00;99.90;;;;;;4968652;28;20035;-88
2021/10/31 19:57:44;;;;;;;3.65;0.20;;;12.00;99.90;;;;;;4965730;28;20039;-87
2021/10/31 20:00:11;;;;;;;4.50;0.20;;;11.90;99.90;;;;;;4965484;28;20043;-87
2021/10/31 20:02:40;;;;;;;4.35;0.20;;;12.00;99.90;;;;;;4949685;29;20047;-87
2021/10/31 20:05:06;;;;;;;1.98;0.22;;;12.00;99.90;;;;;;4949989;29;20043;-88
2021/10/31 20:07:37;;;;;;;3.60;0.20;;;11.90;99.90;;;;;;4949908;29;20043;-88
2021/10/31 20:10:04;;;;;;;5.72;0.20;;;11.90;99.90;;;;;;4934576;29;20054;-88
2021/10/31 20:12:30;;;;;;;1.75;0.20;;;11.90;99.90;;;;;;4950462;29;20051;-87
2021/10/31 20:14:57;;;;;;;4.07;0.30;;;11.90;99.90;;;;;;4966708;28;20058;-87
2021/10/31 20:17:22;;;;;;;3.58;0.20;;;11.90;99.90;;;;;;4966229;29;20055;-87
2021/10/31 20:19:48;;;;;;;4.40;0.22;;;11.90;99.90;;;;;;4966375;29;20058;-90
2021/10/31 20:22:14;;;;;;;3.25;0.50;;;11.90;99.90;;;;;;4966362;29;20070;-87
2021/10/31 20:24:40;;;;;;;6.97;0.93;;;11.80;99.90;;;;;;4931007;28;20065;-87
2021/10/31 20:27:07;;;;;;;2.50;0.20;;;11.80;99.90;;;;;;4959326;28;20106;-85
2021/10/31 20:29:35;;;;;;;6.63;0.30;;;11.80;99.90;;;;;;4966646;28;20051;-85
2021/10/31 20:32:03;;;;;;;3.42;0.30;;;11.80;99.90;;;;;;4934821;29;20102;-85
2021/10/31 20:34:28;;;;;;;4.72;0.40;;;11.80;99.90;;;;;;4949810;29;20483;-85
2021/10/31 20:36:57;;;;;;;4.05;0.30;;;11.80;99.90;;;;;;4967298;29;20039;-86
2021/10/31 20:39:23;;;;;;;7.20;0.30;;;11.60;99.90;;;;;;4950244;29;20121;-86
2021/10/31 20:41:48;;;;;;;9.77;0.30;;;11.60;99.90;;;;;;4962817;29;20055;-86
2021/10/31 20:44:14;;;;;;;3.22;0.30;;;11.60;99.90;;;;;;4966080;29;20110;-86
2021/10/31 20:46:40;;;;;;;9.30;0.30;;;11.50;99.90;;;;;;4962694;28;20102;-87
2021/10/31 20:49:06;;;;;;;2.95;0.20;;;11.40;99.90;;;;;;4969126;28;20051;-88
2021/10/31 20:51:32;;;;;;;7.78;0.35;;;11.40;99.90;;;;;;4980230;28;20472;-87
2021/10/31 20:53:59;;;;;;;12.32;0.50;;;11.30;99.90;;;;;;4986430;28;20039;-87
2021/10/31 20:56:27;;;;;;;7.68;0.40;;;11.30;99.90;;;;;;4950458;28;20045;-88
2021/10/31 20:58:58;;;;;;;8.40;0.47;;;11.30;99.90;;;;;;4990253;28;20043;-85
2021/10/31 21:01:24;;;;;;;7.47;0.40;;;11.20;99.90;;;;;;5005816;28;20045;-86
2021/10/31 21:03:50;;;;;;;6.38;0.40;;;11.20;99.90;;;;;;4989226;28;20570;-86
2021/10/31 21:06:17;;;;;;;6.15;0.40;;;11.20;99.90;;;;;;4989388;28;20039;-87
2021/10/31 21:08:44;;;;;;;6.28;0.47;;;11.20;99.90;;;;;;4989498;28;20104;-87
2021/10/31 21:11:15;;;;;;;6.47;0.40;;;11.10;99.90;;;;;;4999198;28;20178;-86
2021/10/31 21:13:41;;;;;;;8.80;0.40;;;11.00;99.90;;;;;;4954035;29;20558;-88
2021/10/31 21:16:11;;;;;;;8.18;0.50;;;11.10;99.90;;;;;;4953314;29;20039;-88
2021/10/31 21:18:37;;;;;;;6.80;0.50;;;11.10;99.90;;;;;;4985996;28;20035;-87
2021/10/31 21:21:03;;;;;;;7.03;0.60;;;11.00;99.90;;;;;;4954137;29;20510;-91
2021/10/31 21:23:31;;;;;;;9.15;1.15;;;10.90;99.90;;;;;;4986590;28;20051;-95
2021/10/31 21:25:57;;;;;;;7.05;0.50;;;10.90;99.90;;;;;;4953960;29;20043;-91
2021/10/31 21:28:23;;;;;;;4.88;0.45;;;10.90;99.90;;;;;;4937752;29;20047;-95
2021/10/31 21:30:49;;;;;;;7.72;0.52;;;10.90;99.90;;;;;;4953656;29;20417;-90
2021/10/31 21:33:15;;;;;;;5.15;0.30;;;10.90;99.90;;;;;;4969761;29;20071;-95
2021/10/31 21:35:41;;;;;;;4.90;0.40;;;10.90;99.90;;;;;;4953608;29;20039;-94
2021/10/31 21:38:09;;;;;;;5.85;0.50;;;10.80;99.90;;;;;;4969858;29;20043;-94
2021/10/31 21:40:36;;;;;;;5.05;0.57;;;10.80;99.90;;;;;;4941023;28;20043;-86
2021/10/31 21:43:02;;;;;;;5.90;0.40;;;10.80;99.90;;;;;;4973079;28;20279;-90
2021/10/31 21:45:49;;;;;;;6.15;0.40;;;10.70;99.90;;;;;;4972783;28;20660;-92
2021/10/31 21:48:15;;;;;;;5.32;0.70;;;10.70;99.90;;;;;;4967972;29;20078;-90
2021/10/31 21:50:41;;;;;;;7.38;0.40;;;10.70;99.90;;;;;;4936380;29;20043;-90
2021/10/31 21:53:07;;;;;;;10.15;0.57;;;10.80;99.90;;;;;;4943865;29;20047;-88
2021/10/31 21:55:32;;;;;;;4.47;0.30;;;10.70;99.90;;;;;;4933138;29;20159;-90
2021/10/31 21:57:58;;;;;;;5.03;0.40;;;10.70;99.90;;;;;;4932961;29;20107;-92
2021/10/31 22:00:27;;;;;;;7.30;0.40;;;10.60;99.90;;;;;;4933074;29;20040;-91
2021/10/31 22:02:53;;;;;;;6.75;0.40;;;10.60;99.90;;;;;;4933245;29;20056;-90
2021/10/31 22:05:19;;;;;;;8.05;0.45;;;10.60;99.90;;;;;;4932908;29;20043;-89
2021/10/31 22:07:44;;;;;;;10.48;0.50;;;10.60;99.90;;;;;;4932593;29;20495;-87
2021/10/31 22:10:10;;;;;;;6.30;0.40;;;10.60;99.90;;;;;;4931660;29;20512;-92
2021/10/31 22:12:35;;;;;;;4.90;0.60;;;10.50;99.90;;;;;;4932796;29;20044;-92
2021/10/31 22:15:01;;;;;;;7.28;0.50;;;10.50;99.90;;;;;;4933064;29;20068;-88
2021/10/31 22:17:27;;;;;;;7.75;0.80;;;10.50;99.90;;;;;;4948376;29;20043;-91
2021/10/31 22:19:53;;;;;;;8.02;1.40;;;10.50;99.90;;;;;;4932673;29;20102;-87
2021/10/31 22:22:18;;;;;;;9.05;1.00;;;10.50;99.90;;;;;;4932694;29;20043;-86
2021/10/31 22:24:44;;;;;;;11.48;1.52;;;10.50;99.90;;;;;;4938216;29;20142;-91
2021/10/31 22:27:10;;;;;;;7.25;1.20;;;10.50;99.90;;;;;;4984560;28;20047;-87
2021/10/31 22:29:35;;;;;;;4.70;0.73;;;10.40;99.90;;;;;;4984850;28;20093;-87
2021/10/31 22:32:02;;;;;;;12.30;0.88;;;10.50;99.90;;;;;;4968181;28;20152;-86
2021/10/31 22:34:28;;;;;;;8.25;0.70;;;10.40;99.90;;;;;;4984792;28;20046;-87
2021/10/31 22:36:53;;;;;;;9.57;0.90;;;10.40;99.90;;;;;;4984566;28;20103;-86
2021/10/31 22:39:19;;;;;;;14.80;1.33;;;10.50;99.90;;;;;;4984820;28;20051;-88
2021/10/31 22:41:45;;;;;;;10.93;1.05;;;10.40;99.90;;;;;;5000231;28;20043;-88
2021/10/31 22:44:11;;;;;;;13.63;0.98;;;10.40;99.90;;;;;;4987582;28;20107;-88
2021/10/31 22:46:38;;;;;;;7.20;0.70;;;10.40;99.90;;;;;;5003467;28;20058;-90
2021/10/31 22:49:04;;;;;;;6.28;0.50;;;10.30;99.90;;;;;;4987608;28;20047;-87
2021/10/31 22:51:31;;;;;;;12.38;0.60;;;10.30;99.90;;;;;;4987676;28;20047;-89
2021/10/31 22:53:56;;;;;;;8.27;0.88;;;10.40;99.90;;;;;;4987681;28;20043;-94
2021/10/31 22:56:23;;;;;;;7.93;1.15;;;10.30;99.90;;;;;;4987391;28;20061;-87
2021/10/31 22:58:49;;;;;;;11.73;0.60;;;10.30;99.90;;;;;;4987303;28;20046;-88
2021/10/31 23:01:18;;;;;;;12.13;0.75;;;10.20;99.90;;;;;;5003714;28;20085;-89
2021/10/31 23:03:45;;;;;;;9.57;1.23;;;10.20;99.90;;;;;;4987270;28;20495;-88
2021/10/31 23:06:17;;;;;;;9.60;0.65;;;10.30;99.90;;;;;;4954995;28;20101;-93
2021/10/31 23:08:43;;;;;;;8.57;1.02;;;10.20;99.90;;;;;;4987214;28;20071;-90
2021/10/31 23:11:11;;;;;;;9.00;1.13;;;10.20;99.90;;;;;;4987048;28;20085;-90
2021/10/31 23:13:39;;;;;;;10.70;1.10;;;10.20;99.90;;;;;;4971364;28;20043;-90
2021/10/31 23:16:05;;;;;;;4.03;0.50;;;10.20;99.90;;;;;;4986981;28;20038;-89
2021/10/31 23:18:31;;;;;;;11.60;0.85;;;10.20;99.90;;;;;;5003166;28;20043;-85
2021/10/31 23:20:57;;;;;;;8.40;0.70;;;10.10;99.90;;;;;;4986800;28;20053;-90
2021/10/31 23:23:23;;;;;;;9.60;0.70;;;10.10;99.90;;;;;;5003369;28;20538;-90
2021/10/31 23:25:51;;;;;;;6.00;0.60;;;10.10;99.90;;;;;;4986833;28;20039;-89
2021/10/31 23:28:18;;;;;;;11.70;0.80;;;10.10;99.90;;;;;;4986745;28;20051;-86
2021/10/31 23:30:45;;;;;;;6.30;0.60;;;10.10;99.90;;;;;;4986839;28;20472;-90
2021/10/31 23:33:11;;;;;;;13.18;0.70;;;10.00;99.90;;;;;;4987777;28;20039;-92
2021/10/31 23:35:37;;;;;;;6.65;0.65;;;10.00;99.90;;;;;;4970729;28;20039;-86
2021/10/31 23:38:04;;;;;;;5.97;0.57;;;10.00;99.90;;;;;;4986596;28;20046;-89
2021/10/31 23:40:30;;;;;;;8.98;0.50;;;9.90;99.90;;;;;;5002996;28;20050;-89
2021/10/31 23:42:58;;;;;;;5.63;0.60;;;9.90;99.90;;;;;;4986635;28;20039;-87
2021/10/31 23:45:51;;;;;;;5.55;0.85;;;9.90;99.90;;;;;;4986419;28;20046;-88
2021/10/31 23:48:18;;;;;;;9.35;0.73;;;9.90;99.90;;;;;;4949601;29;20062;-87
2021/10/31 23:50:45;;;;;;;5.75;0.40;;;9.90;99.90;;;;;;4934292;29;20039;-89
2021/10/31 23:53:11;;;;;;;8.45;0.50;;;9.90;99.90;;;;;;4930613;29;20178;-87
2021/10/31 23:55:37;;;;;;;9.82;0.57;;;9.80;99.90;;;;;;4930956;29;20050;-89
2021/10/31 23:58:03;;;;;;;6.68;0.40;;;9.80;99.90;;;;;;4930605;29;20047;-89
